sensor_id;sensor_type;location;lat;lon;timestamp;pressure;altitude;pressure_sealevel;temperature;humidity
54453;BME280;40363;52.270;10.546;2024-03-23T01:34:20;99909.47;;;7.30;84.02
54453;BME280;40363;52.270;10.546;2024-03-23T01:36:47;99898.41;;;7.26;83.94
54453;BME280;40363;52.270;10.546;2024-03-23T01:39:13;99898.25;;;7.22;84.05
54453;BME280;40363;52.270;10.546;2024-03-23T01:41:39;99889.94;;;7.19;83.89
54453;BME280;40363;52.270;10.546;2024-03-23T01:44:07;99882.53;;;7.19;84.49
54453;BME280;40363;52.270;10.546;2024-03-23T01:46:35;99883.22;;;7.07;83.59
54453;BME280;40363;52.270;10.546;2024-03-23T01:49:01;99874.41;;;7.11;83.74
54453;BME280;40363;52.270;10.546;2024-03-23T01:51:29;99868.78;;;7.07;83.41
54453;BME280;40363;52.270;10.546;2024-03-23T01:53:56;99878.22;;;7.10;83.59
54453;BME280;40363;52.270;10.546;2024-03-23T01:56:23;99861.09;;;7.09;83.36
54453;BME280;40363;52.270;10.546;2024-03-23T01:58:48;99864.78;;;7.04;83.56
54453;BME280;40363;52.270;10.546;2024-03-23T02:01:15;99865.75;;;7.00;84.00
54453;BME280;40363;52.270;10.546;2024-03-23T02:03:41;99856.78;;;6.99;84.22
54453;BME280;40363;52.270;10.546;2024-03-23T02:06:08;99857.09;;;6.98;84.55
54453;BME280;40363;52.270;10.546;2024-03-23T02:08:35;99851.97;;;6.96;84.33
54453;BME280;40363;52.270;10.546;2024-03-23T02:11:02;99859.03;;;6.97;83.81
54453;BME280;40363;52.270;10.546;2024-03-23T02:13:28;99850.53;;;6.99;83.67
54453;BME280;40363;52.270;10.546;2024-03-23T02:15:54;99853.59;;;6.97;83.57
54453;BME280;40363;52.270;10.546;2024-03-23T02:18:20;99848.94;;;6.98;83.66
54453;BME280;40363;52.270;10.546;2024-03-23T02:20:46;99842.22;;;6.95;83.47
54453;BME280;40363;52.270;10.546;2024-03-23T02:23:17;99831.16;;;6.92;83.35
54453;BME280;40363;52.270;10.546;2024-03-23T02:25:44;99831.50;;;6.90;83.25
54453;BME280;40363;52.270;10.546;2024-03-23T02:28:10;99824.09;;;6.91;83.15
54453;BME280;40363;52.270;10.546;2024-03-23T02:30:37;99831.00;;;6.88;83.89
54453;BME280;40363;52.270;10.546;2024-03-23T02:33:03;99814.31;;;6.89;84.32
54453;BME280;40363;52.270;10.546;2024-03-23T02:35:29;99817.72;;;6.86;83.88
54453;BME280;40363;52.270;10.546;2024-03-23T02:37:55;99812.91;;;6.83;84.01
54453;BME280;40363;52.270;10.546;2024-03-23T02:40:24;99816.75;;;6.82;84.29
54453;BME280;40363;52.270;10.546;2024-03-23T02:42:50;99817.88;;;6.81;84.53
54453;BME280;40363;52.270;10.546;2024-03-23T02:45:17;99818.22;;;6.80;85.08
54453;BME280;40363;52.270;10.546;2024-03-23T02:47:42;99806.81;;;6.78;85.27
54453;BME280;40363;52.270;10.546;2024-03-23T02:50:09;99800.56;;;6.77;85.09
54453;BME280;40363;52.270;10.546;2024-03-23T02:52:35;99812.59;;;6.76;85.26
54453;BME280;40363;52.270;10.546;2024-03-23T02:55:02;99799.94;;;6.80;85.72
54453;BME280;40363;52.270;10.546;2024-03-23T02:57:30;99801.53;;;6.81;85.31
54453;BME280;40363;52.270;10.546;2024-03-23T02:59:57;99795.13;;;6.77;85.71
54453;BME280;40363;52.270;10.546;2024-03-23T03:02:22;99794.03;;;6.78;85.44
54453;BME280;40363;52.270;10.546;2024-03-23T03:04:49;99789.06;;;6.72;84.25
54453;BME280;40363;52.270;10.546;2024-03-23T03:07:15;99790.19;;;6.70;84.29
54453;BME280;40363;52.270;10.546;2024-03-23T03:09:41;99787.13;;;6.72;84.60
54453;BME280;40363;52.270;10.546;2024-03-23T03:12:07;99792.09;;;6.70;84.91
54453;BME280;40363;52.270;10.546;2024-03-23T03:14:35;99779.28;;;6.70;84.85
54453;BME280;40363;52.270;10.546;2024-03-23T03:17:01;99782.47;;;6.73;84.99
54453;BME280;40363;52.270;10.546;2024-03-23T03:19:27;99776.88;;;6.69;84.67
54453;BME280;40363;52.270;10.546;2024-03-23T03:21:53;99774.47;;;6.67;84.88
54453;BME280;40363;52.270;10.546;2024-03-23T03:24:20;99784.25;;;6.68;85.05
54453;BME280;40363;52.270;10.546;2024-03-23T03:26:45;99777.53;;;6.66;85.00
54453;BME280;40363;52.270;10.546;2024-03-23T03:29:12;99773.53;;;6.63;84.67
54453;BME280;40363;52.270;10.546;2024-03-23T03:31:39;99763.28;;;6.60;84.49
54453;BME280;40363;52.270;10.546;2024-03-23T03:34:06;99768.09;;;6.63;84.62
54453;BME280;40363;52.270;10.546;2024-03-23T03:36:31;99760.09;;;6.58;84.92
54453;BME280;40363;52.270;10.546;2024-03-23T03:38:58;99760.72;;;6.55;84.61
54453;BME280;40363;52.270;10.546;2024-03-23T03:41:24;99765.38;;;6.55;84.77
54453;BME280;40363;52.270;10.546;2024-03-23T03:43:51;99765.25;;;6.51;84.83
54453;BME280;40363;52.270;10.546;2024-03-23T03:46:16;99765.25;;;6.51;85.20
54453;BME280;40363;52.270;10.546;2024-03-23T03:48:44;99761.38;;;6.52;85.25
54453;BME280;40363;52.270;10.546;2024-03-23T03:51:11;99763.00;;;6.53;84.92
54453;BME280;40363;52.270;10.546;2024-03-23T03:53:38;99770.19;;;6.49;85.59
54453;BME280;40363;52.270;10.546;2024-03-23T03:56:04;99761.22;;;6.48;85.08
54453;BME280;40363;52.270;10.546;2024-03-23T03:58:31;99771.00;;;6.49;85.07
54453;BME280;40363;52.270;10.546;2024-03-23T04:00:56;99757.06;;;6.51;84.92
54453;BME280;40363;52.270;10.546;2024-03-23T04:03:23;99760.44;;;6.48;85.76
54453;BME280;40363;52.270;10.546;2024-03-23T04:05:53;99747.47;;;6.45;86.31
54453;BME280;40363;52.270;10.546;2024-03-23T04:08:20;99745.53;;;6.45;85.55
54453;BME280;40363;52.270;10.546;2024-03-23T04:10:46;99748.91;;;6.42;85.23
54453;BME280;40363;52.270;10.546;2024-03-23T04:13:13;99750.97;;;6.45;85.18
54453;BME280;40363;52.270;10.546;2024-03-23T04:15:39;99744.59;;;6.41;84.58
54453;BME280;40363;52.270;10.546;2024-03-23T04:18:06;99745.38;;;6.42;84.53
54453;BME280;40363;52.270;10.546;2024-03-23T04:20:32;99739.63;;;6.43;85.25
54453;BME280;40363;52.270;10.546;2024-03-23T04:23:00;99733.69;;;6.41;85.06
54453;BME280;40363;52.270;10.546;2024-03-23T04:25:26;99726.97;;;6.39;85.44
54453;BME280;40363;52.270;10.546;2024-03-23T04:27:52;99729.03;;;6.42;85.52
54453;BME280;40363;52.270;10.546;2024-03-23T04:30:18;99724.41;;;6.42;85.10
54453;BME280;40363;52.270;10.546;2024-03-23T04:32:46;99726.97;;;6.39;85.34
54453;BME280;40363;52.270;10.546;2024-03-23T04:35:13;99730.00;;;6.37;85.41
54453;BME280;40363;52.270;10.546;2024-03-23T04:37:39;99733.06;;;6.36;85.60
54453;BME280;40363;52.270;10.546;2024-03-23T04:40:09;99731.16;;;6.36;86.22
54453;BME280;40363;52.270;10.546;2024-03-23T04:42:36;99723.94;;;6.31;85.93
54453;BME280;40363;52.270;10.546;2024-03-23T04:45:04;99721.53;;;6.30;85.37
54453;BME280;40363;52.270;10.546;2024-03-23T04:47:32;99721.22;;;6.31;85.35
54453;BME280;40363;52.270;10.546;2024-03-23T04:50:01;99719.13;;;6.28;85.25
54453;BME280;40363;52.270;10.546;2024-03-23T04:52:29;99715.16;;;6.26;85.52
54453;BME280;40363;52.270;10.546;2024-03-23T04:54:56;99714.34;;;6.25;85.54
54453;BME280;40363;52.270;10.546;2024-03-23T04:57:24;99718.66;;;6.26;85.15
54453;BME280;40363;52.270;10.546;2024-03-23T04:59:50;99714.97;;;6.22;85.30
54453;BME280;40363;52.270;10.546;2024-03-23T05:02:16;99702.50;;;6.21;84.97
54453;BME280;40363;52.270;10.546;2024-03-23T05:04:43;99701.06;;;6.15;84.93
54453;BME280;40363;52.270;10.546;2024-03-23T05:07:09;99703.16;;;6.18;85.09
54453;BME280;40363;52.270;10.546;2024-03-23T05:09:36;99687.63;;;6.19;85.61
54453;BME280;40363;52.270;10.546;2024-03-23T05:12:02;99679.13;;;6.20;85.21
54453;BME280;40363;52.270;10.546;2024-03-23T05:14:30;99687.63;;;6.19;85.38
54453;BME280;40363;52.270;10.546;2024-03-23T05:16:56;99682.84;;;6.16;85.45
54453;BME280;40363;52.270;10.546;2024-03-23T05:19:23;99682.84;;;6.16;85.44
54453;BME280;40363;52.270;10.546;2024-03-23T05:21:49;99691.63;;;6.12;85.89
54453;BME280;40363;52.270;10.546;2024-03-23T05:24:15;99690.00;;;6.20;85.99
54453;BME280;40363;52.270;10.546;2024-03-23T05:26:41;99684.56;;;6.20;85.43
54453;BME280;40363;52.270;10.546;2024-03-23T05:29:08;99688.44;;;6.19;85.47
54453;BME280;40363;52.270;10.546;2024-03-23T05:31:37;99675.94;;;6.18;85.31
54453;BME280;40363;52.270;10.546;2024-03-23T05:34:06;99677.88;;;6.18;85.86
54453;BME280;40363;52.270;10.546;2024-03-23T05:36:32;99681.38;;;6.18;85.23
54453;BME280;40363;52.270;10.546;2024-03-23T05:38:58;99675.47;;;6.16;86.08
54453;BME280;40363;52.270;10.546;2024-03-23T05:41:24;99675.31;;;6.12;86.19
54453;BME280;40363;52.270;10.546;2024-03-23T05:43:51;99687.00;;;6.13;86.61
54453;BME280;40363;52.270;10.546;2024-03-23T05:46:16;99672.75;;;6.07;85.72
54453;BME280;40363;52.270;10.546;2024-03-23T05:48:45;99668.13;;;5.99;85.71
54453;BME280;40363;52.270;10.546;2024-03-23T05:51:10;99678.19;;;5.99;85.63
54453;BME280;40363;52.270;10.546;2024-03-23T05:53:38;99681.88;;;5.94;84.31
54453;BME280;40363;52.270;10.546;2024-03-23T05:56:04;99686.34;;;5.90;83.39
54453;BME280;40363;52.270;10.546;2024-03-23T05:58:31;99680.25;;;5.93;84.10
54453;BME280;40363;52.270;10.546;2024-03-23T06:00:57;99673.56;;;5.90;84.03
54453;BME280;40363;52.270;10.546;2024-03-23T06:03:25;99681.06;;;5.85;83.71
54453;BME280;40363;52.270;10.546;2024-03-23T06:05:52;99675.63;;;5.85;83.15
54453;BME280;40363;52.270;10.546;2024-03-23T06:08:19;99672.75;;;5.81;83.60
54453;BME280;40363;52.270;10.546;2024-03-23T06:10:45;99669.22;;;5.81;83.03
54453;BME280;40363;52.270;10.546;2024-03-23T06:13:12;99675.00;;;5.79;83.18
54453;BME280;40363;52.270;10.546;2024-03-23T06:15:37;99677.41;;;5.72;83.55
54453;BME280;40363;52.270;10.546;2024-03-23T06:18:04;99670.50;;;5.74;82.95
54453;BME280;40363;52.270;10.546;2024-03-23T06:20:31;99678.66;;;5.74;82.77
54453;BME280;40363;52.270;10.546;2024-03-23T06:22:59;99670.19;;;5.76;81.98
54453;BME280;40363;52.270;10.546;2024-03-23T06:25:25;99681.22;;;5.80;82.39
54453;BME280;40363;52.270;10.546;2024-03-23T06:27:52;99679.97;;;5.77;82.75
54453;BME280;40363;52.270;10.546;2024-03-23T06:30:17;99685.88;;;5.79;83.09
54453;BME280;40363;52.270;10.546;2024-03-23T06:32:44;99683.94;;;5.71;80.49
54453;BME280;40363;52.270;10.546;2024-03-23T06:35:10;99684.75;;;5.63;80.12
54453;BME280;40363;52.270;10.546;2024-03-23T06:37:36;99671.47;;;5.52;79.70
54453;BME280;40363;52.270;10.546;2024-03-23T06:40:04;99679.47;;;5.57;78.74
54453;BME280;40363;52.270;10.546;2024-03-23T06:42:34;99676.91;;;5.52;78.61
54453;BME280;40363;52.270;10.546;2024-03-23T06:45:00;99679.78;;;5.56;77.61
54453;BME280;40363;52.270;10.546;2024-03-23T06:47:27;99691.13;;;5.58;77.38
54453;BME280;40363;52.270;10.546;2024-03-23T06:49:53;99695.94;;;5.52;77.62
54453;BME280;40363;52.270;10.546;2024-03-23T06:52:19;99687.94;;;5.56;76.80
54453;BME280;40363;52.270;10.546;2024-03-23T06:54:45;99688.56;;;5.53;77.63
54453;BME280;40363;52.270;10.546;2024-03-23T06:57:13;99690.00;;;5.50;77.11
54453;BME280;40363;52.270;10.546;2024-03-23T06:59:39;99686.97;;;5.52;77.39
54453;BME280;40363;52.270;10.546;2024-03-23T07:02:06;99682.34;;;5.52;77.27
54453;BME280;40363;52.270;10.546;2024-03-23T07:04:33;99676.88;;;5.35;77.33
54453;BME280;40363;52.270;10.546;2024-03-23T07:07:00;99675.13;;;5.48;78.95
54453;BME280;40363;52.270;10.546;2024-03-23T07:09:27;99663.94;;;5.58;78.53
54453;BME280;40363;52.270;10.546;2024-03-23T07:11:55;99671.47;;;5.70;78.00
54453;BME280;40363;52.270;10.546;2024-03-23T07:14:23;99674.00;;;5.75;77.04
54453;BME280;40363;52.270;10.546;2024-03-23T07:16:50;99681.22;;;5.80;77.30
54453;BME280;40363;52.270;10.546;2024-03-23T07:19:16;99681.06;;;5.85;78.63
54453;BME280;40363;52.270;10.546;2024-03-23T07:21:43;99684.94;;;6.01;78.82
54453;BME280;40363;52.270;10.546;2024-03-23T07:24:08;99677.53;;;6.10;77.86
54453;BME280;40363;52.270;10.546;2024-03-23T07:26:36;99674.31;;;6.17;77.91
54453;BME280;40363;52.270;10.546;2024-03-23T07:29:01;99671.59;;;6.17;77.03
54453;BME280;40363;52.270;10.546;2024-03-23T07:31:30;99675.47;;;6.16;76.52
54453;BME280;40363;52.270;10.546;2024-03-23T07:33:56;99677.53;;;6.19;76.07
54453;BME280;40363;52.270;10.546;2024-03-23T07:36:23;99670.47;;;6.27;76.76
54453;BME280;40363;52.270;10.546;2024-03-23T07:38:50;99677.81;;;6.35;76.84
54453;BME280;40363;52.270;10.546;2024-03-23T07:41:18;99680.38;;;6.40;76.88
54453;BME280;40363;52.270;10.546;2024-03-23T07:43:44;99683.88;;;6.41;76.80
54453;BME280;40363;52.270;10.546;2024-03-23T07:46:11;99689.50;;;6.44;75.78
54453;BME280;40363;52.270;10.546;2024-03-23T07:48:39;99694.78;;;6.49;74.53
54453;BME280;40363;52.270;10.546;2024-03-23T07:51:08;99690.63;;;6.43;74.76
54453;BME280;40363;52.270;10.546;2024-03-23T07:53:35;99687.88;;;6.43;74.30
54453;BME280;40363;52.270;10.546;2024-03-23T07:56:04;99687.88;;;6.43;75.23
54453;BME280;40363;52.270;10.546;2024-03-23T07:58:31;99676.84;;;6.40;74.47
54453;BME280;40363;52.270;10.546;2024-03-23T08:01:04;99678.63;;;6.27;73.65
54453;BME280;40363;52.270;10.546;2024-03-23T08:03:30;99685.03;;;6.22;74.30
54453;BME280;40363;52.270;10.546;2024-03-23T08:05:58;99685.72;;;6.19;75.19
54453;BME280;40363;52.270;10.546;2024-03-23T08:08:31;99695.31;;;6.17;75.46
54453;BME280;40363;52.270;10.546;2024-03-23T08:10:58;99692.59;;;6.17;75.42
54453;BME280;40363;52.270;10.546;2024-03-23T08:13:23;99688.28;;;6.16;74.85
54453;BME280;40363;52.270;10.546;2024-03-23T08:15:50;99691.63;;;6.12;74.78
54453;BME280;40363;52.270;10.546;2024-03-23T08:18:15;99694.66;;;6.20;74.64
54453;BME280;40363;52.270;10.546;2024-03-23T08:20:42;99691.47;;;6.18;74.34
54453;BME280;40363;52.270;10.546;2024-03-23T08:23:09;99693.88;;;6.19;74.59
54453;BME280;40363;52.270;10.546;2024-03-23T08:25:36;99694.03;;;6.23;74.79
54453;BME280;40363;52.270;10.546;2024-03-23T08:28:01;99688.41;;;6.28;74.97
54453;BME280;40363;52.270;10.546;2024-03-23T08:30:28;99682.78;;;6.33;74.74
54453;BME280;40363;52.270;10.546;2024-03-23T08:32:54;99683.25;;;6.35;74.65
54453;BME280;40363;52.270;10.546;2024-03-23T08:35:21;99668.84;;;6.43;74.38
54453;BME280;40363;52.270;10.546;2024-03-23T08:37:47;99671.19;;;6.54;74.02
54453;BME280;40363;52.270;10.546;2024-03-23T08:40:15;99670.19;;;6.67;73.89
54453;BME280;40363;52.270;10.546;2024-03-23T08:42:41;99678.78;;;6.86;74.29
54453;BME280;40363;52.270;10.546;2024-03-23T08:45:08;99673.94;;;6.92;74.25
54453;BME280;40363;52.270;10.546;2024-03-23T08:47:34;99670.38;;;7.00;74.35
54453;BME280;40363;52.270;10.546;2024-03-23T08:50:02;99678.03;;;7.07;73.88
54453;BME280;40363;52.270;10.546;2024-03-23T08:52:27;99683.75;;;7.14;73.31
54453;BME280;40363;52.270;10.546;2024-03-23T08:54:55;99687.59;;;7.13;73.74
54453;BME280;40363;52.270;10.546;2024-03-23T08:57:22;99683.03;;;7.05;74.44
54453;BME280;40363;52.270;10.546;2024-03-23T08:59:49;99670.03;;;7.02;74.66
54453;BME280;40363;52.270;10.546;2024-03-23T09:02:15;99687.78;;;7.08;74.87
54453;BME280;40363;52.270;10.546;2024-03-23T09:04:41;99689.63;;;7.25;74.67
54453;BME280;40363;52.270;10.546;2024-03-23T09:07:08;99685.78;;;7.26;75.14
54453;BME280;40363;52.270;10.546;2024-03-23T09:09:34;99680.53;;;7.42;75.15
54453;BME280;40363;52.270;10.546;2024-03-23T09:12:01;99680.63;;;7.54;74.37
54453;BME280;40363;52.270;10.546;2024-03-23T09:14:52;99686.53;;;7.77;73.97
54453;BME280;40363;52.270;10.546;2024-03-23T09:17:21;99680.88;;;7.82;73.83
54453;BME280;40363;52.270;10.546;2024-03-23T09:19:48;99685.47;;;7.70;74.38
54453;BME280;40363;52.270;10.546;2024-03-23T09:22:14;99688.66;;;7.51;76.10
54453;BME280;40363;52.270;10.546;2024-03-23T09:24:41;99703.94;;;7.22;77.22
54453;BME280;40363;52.270;10.546;2024-03-23T09:27:06;99711.09;;;6.97;78.49
54453;BME280;40363;52.270;10.546;2024-03-23T09:29:33;99707.31;;;6.80;79.32
54453;BME280;40363;52.270;10.546;2024-03-23T09:32:00;99695.81;;;6.66;79.88
54453;BME280;40363;52.270;10.546;2024-03-23T09:34:27;99694.09;;;6.52;77.19
54453;BME280;40363;52.270;10.546;2024-03-23T09:36:52;99689.16;;;6.46;77.12
54453;BME280;40363;52.270;10.546;2024-03-23T09:39:19;99697.97;;;6.51;76.57
54453;BME280;40363;52.270;10.546;2024-03-23T09:41:45;99703.66;;;6.67;76.85
54453;BME280;40363;52.270;10.546;2024-03-23T09:44:12;99709.44;;;6.66;78.67
54453;BME280;40363;52.270;10.546;2024-03-23T09:46:38;99700.75;;;6.81;78.33
54453;BME280;40363;52.270;10.546;2024-03-23T09:49:07;99700.84;;;6.94;79.00
54453;BME280;40363;52.270;10.546;2024-03-23T09:51:35;99706.66;;;7.22;78.11
54453;BME280;40363;52.270;10.546;2024-03-23T09:54:02;99712.00;;;7.39;78.27
54453;BME280;40363;52.270;10.546;2024-03-23T09:56:27;99692.97;;;7.52;78.31
54453;BME280;40363;52.270;10.546;2024-03-23T09:59:00;99701.59;;;7.62;77.58
54453;BME280;40363;52.270;10.546;2024-03-23T10:01:26;99698.66;;;7.68;77.14
54453;BME280;40363;52.270;10.546;2024-03-23T10:03:53;99696.72;;;7.89;76.90
54453;BME280;40363;52.270;10.546;2024-03-23T10:06:22;99691.81;;;8.16;76.75
54453;BME280;40363;52.270;10.546;2024-03-23T10:08:50;99703.13;;;8.27;75.90
54453;BME280;40363;52.270;10.546;2024-03-23T10:11:16;99686.53;;;8.32;75.53
54453;BME280;40363;52.270;10.546;2024-03-23T10:13:44;99697.97;;;8.46;75.38
54453;BME280;40363;52.270;10.546;2024-03-23T10:16:11;99686.31;;;8.70;74.14
54453;BME280;40363;52.270;10.546;2024-03-23T10:18:39;99678.91;;;9.33;71.88
54453;BME280;40363;52.270;10.546;2024-03-23T10:21:08;99685.94;;;10.15;70.55
54453;BME280;40363;52.270;10.546;2024-03-23T10:23:39;99673.19;;;10.35;69.72
54453;BME280;40363;52.270;10.546;2024-03-23T10:26:13;99691.44;;;9.86;70.26
54453;BME280;40363;52.270;10.546;2024-03-23T10:28:51;99678.75;;;9.29;68.98
54453;BME280;40363;52.270;10.546;2024-03-23T10:31:18;99683.59;;;9.07;67.13
54453;BME280;40363;52.270;10.546;2024-03-23T10:33:45;99667.34;;;9.39;65.68
54453;BME280;40363;52.270;10.546;2024-03-23T10:36:12;99669.28;;;9.92;65.12
54453;BME280;40363;52.270;10.546;2024-03-23T10:38:40;99674.88;;;9.42;65.03
54453;BME280;40363;52.270;10.546;2024-03-23T10:41:08;99664.59;;;9.39;64.63
54453;BME280;40363;52.270;10.546;2024-03-23T10:43:35;99676.63;;;8.98;64.93
54453;BME280;40363;52.270;10.546;2024-03-23T10:46:02;99675.66;;;8.56;64.96
54453;BME280;40363;52.270;10.546;2024-03-23T10:48:28;99666.25;;;8.66;65.34
54453;BME280;40363;52.270;10.546;2024-03-23T10:50:55;99686.31;;;8.70;65.19
54453;BME280;40363;52.270;10.546;2024-03-23T10:53:22;99700.72;;;8.25;65.10
54453;BME280;40363;52.270;10.546;2024-03-23T10:55:54;99723.75;;;7.31;66.00
54453;BME280;40363;52.270;10.546;2024-03-23T10:58:23;99696.31;;;6.68;69.37
54453;BME280;40363;52.270;10.546;2024-03-23T11:00:52;99681.81;;;6.46;68.22
54453;BME280;40363;52.270;10.546;2024-03-23T11:03:32;99677.75;;;6.61;69.27
54453;BME280;40363;52.270;10.546;2024-03-23T11:05:59;99689.84;;;7.11;67.82
54453;BME280;40363;52.270;10.546;2024-03-23T11:08:35;99683.25;;;8.05;65.42
54453;BME280;40363;52.270;10.546;2024-03-23T11:11:17;99682.16;;;8.52;61.69
54453;BME280;40363;52.270;10.546;2024-03-23T11:13:43;99678.44;;;8.35;63.36
54453;BME280;40363;52.270;10.546;2024-03-23T11:16:13;99676.16;;;8.25;65.12
54453;BME280;40363;52.270;10.546;2024-03-23T11:18:39;99678.50;;;8.14;64.87
54453;BME280;40363;52.270;10.546;2024-03-23T11:21:07;99676.91;;;8.13;65.43
54453;BME280;40363;52.270;10.546;2024-03-23T11:23:33;99672.53;;;8.00;64.67
54453;BME280;40363;52.270;10.546;2024-03-23T11:25:59;99672.41;;;8.30;65.71
54453;BME280;40363;52.270;10.546;2024-03-23T11:28:27;99658.81;;;8.54;64.81
54453;BME280;40363;52.270;10.546;2024-03-23T11:30:54;99658.53;;;8.81;63.47
54453;BME280;40363;52.270;10.546;2024-03-23T11:33:20;99643.81;;;9.10;63.78
54453;BME280;40363;52.270;10.546;2024-03-23T11:35:46;99654.63;;;9.31;63.04
54453;BME280;40363;52.270;10.546;2024-03-23T11:38:13;99632.66;;;9.56;59.67
54453;BME280;40363;52.270;10.546;2024-03-23T11:40:41;99643.94;;;9.66;59.85
54453;BME280;40363;52.270;10.546;2024-03-23T11:43:08;99628.06;;;9.72;58.15
54453;BME280;40363;52.270;10.546;2024-03-23T11:45:38;99629.53;;;9.69;55.68
54453;BME280;40363;52.270;10.546;2024-03-23T11:48:06;99623.38;;;9.73;58.31
54453;BME280;40363;52.270;10.546;2024-03-23T11:50:37;99635.81;;;9.70;57.79
54453;BME280;40363;52.270;10.546;2024-03-23T11:53:07;99669.44;;;9.30;57.69
54453;BME280;40363;52.270;10.546;2024-03-23T11:55:42;99691.44;;;8.38;60.56
54453;BME280;40363;52.270;10.546;2024-03-23T11:58:08;99703.25;;;7.76;62.39
54453;BME280;40363;52.270;10.546;2024-03-23T12:00:34;99696.03;;;7.50;64.55
54453;BME280;40363;52.270;10.546;2024-03-23T12:03:02;99701.91;;;7.10;67.33
54453;BME280;40363;52.270;10.546;2024-03-23T12:05:29;99709.63;;;6.99;69.65
54453;BME280;40363;52.270;10.546;2024-03-23T12:07:54;99686.19;;;6.77;71.03
54453;BME280;40363;52.270;10.546;2024-03-23T12:10:21;99698.09;;;7.02;71.02
54453;BME280;40363;52.270;10.546;2024-03-23T12:12:59;99702.31;;;7.21;72.85
54453;BME280;40363;52.270;10.546;2024-03-23T12:15:27;99706.22;;;7.41;72.97
54453;BME280;40363;52.270;10.546;2024-03-23T12:18:07;99714.72;;;7.39;72.36
54453;BME280;40363;52.270;10.546;2024-03-23T12:20:34;99712.66;;;7.36;72.29
54453;BME280;40363;52.270;10.546;2024-03-23T12:23:05;99703.88;;;7.31;70.88
54453;BME280;40363;52.270;10.546;2024-03-23T12:25:32;99703.66;;;7.06;69.83
54453;BME280;40363;52.270;10.546;2024-03-23T12:27:59;99716.00;;;7.12;70.38
54453;BME280;40363;52.270;10.546;2024-03-23T12:30:25;99709.25;;;7.10;69.60
54453;BME280;40363;52.270;10.546;2024-03-23T12:32:51;99704.91;;;7.17;69.21
54453;BME280;40363;52.270;10.546;2024-03-23T12:35:19;99708.06;;;6.98;68.23
54453;BME280;40363;52.270;10.546;2024-03-23T12:37:45;99675.88;;;6.92;67.97
54453;BME280;40363;52.270;10.546;2024-03-23T12:40:11;99680.84;;;7.19;65.96
54453;BME280;40363;52.270;10.546;2024-03-23T12:42:37;99692.72;;;7.66;67.09
54453;BME280;40363;52.270;10.546;2024-03-23T12:45:04;99687.09;;;8.04;66.13
54453;BME280;40363;52.270;10.546;2024-03-23T12:47:30;99695.16;;;8.00;64.91
54453;BME280;40363;52.270;10.546;2024-03-23T12:49:57;99698.22;;;7.99;65.31
54453;BME280;40363;52.270;10.546;2024-03-23T12:52:24;99704.84;;;7.98;63.69
54453;BME280;40363;52.270;10.546;2024-03-23T12:54:54;99702.97;;;7.90;64.41
54453;BME280;40363;52.270;10.546;2024-03-23T12:57:22;99701.91;;;7.82;65.30
54453;BME280;40363;52.270;10.546;2024-03-23T12:59:48;99717.63;;;7.64;66.28
54453;BME280;40363;52.270;10.546;2024-03-23T13:02:19;99725.50;;;7.36;66.19
54453;BME280;40363;52.270;10.546;2024-03-23T13:04:49;99733.94;;;7.13;66.93
54453;BME280;40363;52.270;10.546;2024-03-23T13:07:15;99736.06;;;7.07;68.23
54453;BME280;40363;52.270;10.546;2024-03-23T13:09:43;99760.75;;;7.02;70.39
54453;BME280;40363;52.270;10.546;2024-03-23T13:12:08;99767.53;;;6.87;70.98
54453;BME280;40363;52.270;10.546;2024-03-23T13:14:35;99751.94;;;6.49;72.75
54453;BME280;40363;52.270;10.546;2024-03-23T13:17:01;99738.84;;;6.17;73.48
54453;BME280;40363;52.270;10.546;2024-03-23T13:19:29;99724.28;;;6.12;72.99
54453;BME280;40363;52.270;10.546;2024-03-23T13:21:56;99724.94;;;6.09;73.13
54453;BME280;40363;52.270;10.546;2024-03-23T13:24:23;99719.16;;;6.11;73.47
54453;BME280;40363;52.270;10.546;2024-03-23T13:26:51;99726.03;;;6.26;73.93
54453;BME280;40363;52.270;10.546;2024-03-23T13:29:18;99715.91;;;6.44;73.51
54453;BME280;40363;52.270;10.546;2024-03-23T13:31:43;99719.88;;;6.64;74.15
54453;BME280;40363;52.270;10.546;2024-03-23T13:34:10;99721.91;;;6.76;72.74
54453;BME280;40363;52.270;10.546;2024-03-23T13:36:36;99722.84;;;6.88;73.52
54453;BME280;40363;52.270;10.546;2024-03-23T13:39:02;99723.44;;;6.94;72.92
54453;BME280;40363;52.270;10.546;2024-03-23T13:41:31;99728.53;;;7.04;71.73
54453;BME280;40363;52.270;10.546;2024-03-23T13:43:59;99724.53;;;7.02;72.54
54453;BME280;40363;52.270;10.546;2024-03-23T13:46:25;99720.84;;;6.98;72.66
54453;BME280;40363;52.270;10.546;2024-03-23T13:48:51;99730.03;;;6.84;73.37
54453;BME280;40363;52.270;10.546;2024-03-23T13:51:23;99719.19;;;6.76;74.30
54453;BME280;40363;52.270;10.546;2024-03-23T13:53:50;99714.72;;;6.71;74.61
54453;BME280;40363;52.270;10.546;2024-03-23T13:56:16;99710.53;;;6.74;74.28
54453;BME280;40363;52.270;10.546;2024-03-23T13:58:42;99703.44;;;6.90;74.72
54453;BME280;40363;52.270;10.546;2024-03-23T14:01:14;99692.44;;;7.07;72.95
54453;BME280;40363;52.270;10.546;2024-03-23T14:03:40;99702.44;;;7.24;71.98
54453;BME280;40363;52.270;10.546;2024-03-23T14:06:06;99707.31;;;7.40;71.45
54453;BME280;40363;52.270;10.546;2024-03-23T14:08:34;99696.00;;;7.59;71.29
54453;BME280;40363;52.270;10.546;2024-03-23T14:11:04;99703.16;;;7.63;70.90
54453;BME280;40363;52.270;10.546;2024-03-23T14:13:31;99697.78;;;7.55;69.26
54453;BME280;40363;52.270;10.546;2024-03-23T14:15:57;99701.63;;;7.54;69.53
54453;BME280;40363;52.270;10.546;2024-03-23T14:18:25;99700.03;;;7.53;69.53
54453;BME280;40363;52.270;10.546;2024-03-23T14:20:52;99705.34;;;7.49;69.28
54453;BME280;40363;52.270;10.546;2024-03-23T14:23:19;99700.94;;;7.36;68.44
54453;BME280;40363;52.270;10.546;2024-03-23T14:25:44;99705.44;;;7.32;69.20
54453;BME280;40363;52.270;10.546;2024-03-23T14:28:11;99706.53;;;7.39;69.22
54453;BME280;40363;52.270;10.546;2024-03-23T14:30:40;99710.81;;;7.49;68.98
54453;BME280;40363;52.270;10.546;2024-03-23T14:33:07;99699.84;;;7.58;68.84